In Rescue
 
Open Full Screen Window  High Contrast Mode
Wind Gusting 00 knots
06
July 24, 2024 3:38 PM CDT
Weather Information
Wind Direction
  060 °
Wind Speed
  06 kt (7 mph)
Wind Gust
  00 kt (0 mph)
Altimeter
30.22 in
Visibility
10 SM
Temperature
22° C
72° F
Dewpoint
15° C
59° F
Humidity
65%
1hr Rain Fall
00.00 in.
24hr Rain Fall
00.58 in.
Sky Condition
Clear
VFR

METAR K21D 242038Z AUTO 06006KT 10SM CLR 22/15 A3022 RMK AO2

FAA Disclaimer: The data displayed is for advisory purposes only and is not to be used for flight planning or operations.